createdAt,value
2018-04-17T00:01:39.308Z,72.40
2018-04-17T00:04:09.838Z,72.50
2018-04-17T00:06:41.037Z,72.80
2018-04-17T00:09:11.121Z,72.90
2018-04-17T00:11:41.594Z,72.90
2018-04-17T00:14:12.420Z,73.00
2018-04-17T00:16:42.892Z,73.00
2018-04-17T00:19:14.712Z,72.90
2018-04-17T00:21:44.974Z,73.00
2018-04-17T00:24:15.773Z,74.10
2018-04-17T00:26:46.602Z,73.40
2018-04-17T00:29:17.246Z,73.50
2018-04-17T00:31:47.726Z,73.20
2018-04-17T00:34:18.261Z,73.00
2018-04-17T00:36:48.945Z,75.50
2018-04-17T00:39:19.620Z,72.90
2018-04-17T00:41:50.819Z,72.90
2018-04-17T00:44:22.031Z,72.90
2018-04-17T00:46:53.964Z,73.10
2018-04-17T00:49:25.277Z,73.00
2018-04-17T00:51:55.334Z,72.80
2018-04-17T00:54:26.169Z,73.00
2018-04-17T00:56:56.603Z,73.10
2018-04-17T00:59:27.085Z,73.40
2018-04-17T01:01:57.216Z,73.30
2018-04-17T01:04:27.694Z,73.50
2018-04-17T01:06:58.202Z,74.90
2018-04-17T01:09:28.639Z,75.20
2018-04-17T01:11:58.762Z,75.30
2018-04-17T01:14:30.459Z,75.40
2018-04-17T01:17:01.625Z,75.40
2018-04-17T01:19:32.497Z,75.80
2018-04-17T01:22:03.023Z,75.90
2018-04-17T01:24:33.459Z,76.10
2018-04-17T01:27:04.661Z,76.10
2018-04-17T01:29:35.070Z,76.20
2018-04-17T01:32:05.546Z,76.10
2018-04-17T01:34:36.035Z,76.20
2018-04-17T01:37:06.104Z,76.30
2018-04-17T01:39:36.580Z,76.40
2018-04-17T01:42:07.661Z,76.70
2018-04-17T01:44:38.412Z,76.90
2018-04-17T01:47:09.245Z,76.90
2018-04-17T01:49:39.882Z,77.10
2018-04-17T01:52:10.808Z,77.10
2018-04-17T01:54:41.266Z,77.20
2018-04-17T01:57:13.626Z,77.50
2018-04-17T01:59:44.456Z,77.60
2018-04-17T02:02:14.597Z,77.60
2018-04-17T02:04:45.164Z,77.50
2018-04-17T02:07:15.834Z,77.40
2018-04-17T02:09:46.404Z,77.50
2018-04-17T02:12:16.544Z,77.60
2018-04-17T02:14:47.350Z,77.70
2018-04-17T02:17:17.627Z,77.60
2018-04-17T02:19:47.952Z,77.60
2018-04-17T02:22:18.588Z,77.70
2018-04-17T02:24:49.714Z,77.80
2018-04-17T02:27:24.007Z,78.00
2018-04-17T02:29:54.952Z,78.00
2018-04-17T02:32:25.936Z,78.10
2018-04-17T02:34:57.152Z,78.20
2018-04-17T02:37:27.739Z,78.40
2018-04-17T02:39:58.007Z,78.40
2018-04-17T02:42:29.040Z,78.40
2018-04-17T02:44:59.476Z,78.50
2018-04-17T02:47:30.047Z,78.50
2018-04-17T02:50:00.861Z,78.60
2018-04-17T02:52:31.773Z,78.80
2018-04-17T02:55:02.744Z,79.00
2018-04-17T02:57:33.021Z,79.20
2018-04-17T03:00:03.293Z,79.20
2018-04-17T03:02:33.463Z,79.20
2018-04-17T03:05:03.794Z,79.10
2018-04-17T03:07:34.063Z,79.00
2018-04-17T03:10:04.361Z,79.00
2018-04-17T03:12:34.509Z,79.00
2018-04-17T03:15:04.723Z,79.20
2018-04-17T03:17:34.634Z,79.40
2018-04-17T03:20:04.561Z,79.80
2018-04-17T03:22:34.783Z,79.80
2018-04-17T03:25:05.885Z,79.80
2018-04-17T03:27:36.455Z,80.00
2018-04-17T03:30:08.017Z,80.10
2018-04-17T03:32:41.195Z,80.00
2018-04-17T03:35:14.180Z,80.00
2018-04-17T03:37:44.669Z,80.00
2018-04-17T03:40:15.147Z,80.10
2018-04-17T03:42:45.973Z,80.30
2018-04-17T03:45:17.484Z,80.30
2018-04-17T03:47:48.966Z,80.20
2018-04-17T03:50:19.425Z,80.10
2018-04-17T03:52:49.711Z,80.20
2018-04-17T03:55:19.552Z,80.40
2018-04-17T03:57:50.691Z,80.70
2018-04-17T04:00:21.825Z,80.90
2018-04-17T04:02:52.833Z,80.90
2018-04-17T04:05:22.990Z,80.70
2018-04-17T04:07:52.454Z,80.80
2018-04-17T04:10:22.573Z,80.90
2018-04-17T04:12:53.869Z,81.10
2018-04-17T04:15:24.374Z,81.30
2018-04-17T04:22:15.087Z,81.80
2018-04-17T04:25:05.962Z,81.90
2018-04-17T04:27:36.893Z,82.10
2018-04-17T04:30:07.173Z,82.60
2018-04-17T04:32:37.516Z,82.60
2018-04-17T04:35:07.762Z,82.50
2018-04-17T04:37:38.910Z,82.30
2018-04-17T04:40:09.850Z,82.40
2018-04-17T04:42:40.010Z,82.50
2018-04-17T04:45:10.273Z,82.40
2018-04-17T04:47:41.487Z,82.40
2018-04-17T04:50:11.747Z,82.60
2018-04-17T04:52:41.869Z,82.80
2018-04-17T04:55:12.039Z,82.90
2018-04-17T04:57:41.827Z,83.00
2018-04-17T05:00:12.018Z,83.20
2018-04-17T05:02:42.200Z,83.50
2018-04-17T05:05:12.365Z,83.50
2018-04-17T05:07:43.417Z,83.40
2018-04-17T05:10:14.240Z,83.30
2018-04-17T05:12:44.806Z,83.20
2018-04-17T05:15:15.043Z,83.10
2018-04-17T05:17:45.631Z,83.00
2018-04-17T05:20:15.845Z,83.00
2018-04-17T05:22:46.305Z,82.80
2018-04-17T05:25:16.443Z,82.40
2018-04-17T05:27:46.680Z,82.90
2018-04-17T05:30:16.731Z,82.00
2018-04-17T05:32:46.854Z,81.70
2018-04-17T05:35:16.949Z,81.50
2018-04-17T05:37:47.027Z,81.30
2018-04-17T05:40:17.109Z,80.90
2018-04-17T05:42:47.159Z,80.70
2018-04-17T05:45:18.962Z,80.20
2018-04-17T05:47:49.334Z,79.40
2018-04-17T05:50:19.416Z,77.60
2018-04-17T05:52:49.480Z,73.80
2018-04-17T05:55:19.590Z,68.80
2018-04-17T05:57:49.302Z,64.60
2018-04-17T06:00:19.493Z,62.10
2018-04-17T06:02:49.598Z,59.80
2018-04-17T06:05:23.474Z,57.20
2018-04-17T06:07:53.556Z,55.30
2018-04-17T06:10:23.335Z,52.80
2018-04-17T06:12:54.156Z,52.10
2018-04-17T06:15:24.225Z,49.20
2018-04-17T06:17:53.929Z,47.30
2018-04-17T06:20:24.130Z,46.10
2018-04-17T06:22:53.863Z,43.80
2018-04-17T06:25:24.608Z,42.10
2018-04-17T06:27:54.664Z,40.90
2018-04-17T06:30:23.963Z,40.80
2018-04-17T06:32:53.242Z,39.50
2018-04-17T06:35:23.528Z,37.70
2018-04-17T06:37:52.839Z,36.50
2018-04-17T06:40:22.939Z,33.80
2018-04-17T06:42:52.241Z,33.70
2018-04-17T06:45:21.638Z,32.50
2018-04-17T06:47:50.915Z,31.70
2018-04-17T06:50:20.207Z,30.90
2018-04-17T06:52:49.598Z,30.20
2018-04-17T06:55:19.632Z,29.40
2018-04-17T06:57:48.996Z,29.40
2018-04-17T07:00:19.376Z,28.90
2018-04-17T07:02:48.964Z,29.20
2018-04-17T07:05:18.291Z,28.30
2018-04-17T07:07:47.573Z,28.70
2018-04-17T07:10:16.895Z,28.90
2018-04-17T07:12:46.229Z,27.70
2018-04-17T07:15:16.310Z,26.50
2018-04-17T07:17:45.631Z,25.20
2018-04-17T07:20:15.681Z,25.80
2018-04-17T07:22:45.759Z,26.60
2018-04-17T07:25:16.488Z,26.80
2018-04-17T07:27:52.024Z,27.50
2018-04-17T07:30:21.336Z,27.90
2018-04-17T07:32:50.632Z,27.20
2018-04-17T07:35:19.946Z,27.50
2018-04-17T07:37:49.254Z,26.80
2018-04-17T07:40:20.630Z,26.10
2018-04-17T07:42:49.960Z,25.40
2018-04-17T07:45:19.260Z,25.00
2018-04-17T07:47:49.315Z,25.30
2018-04-17T07:50:18.605Z,24.60
2018-04-17T07:52:47.899Z,24.40
2018-04-17T07:55:17.239Z,23.90
2018-04-17T07:57:47.309Z,25.00
2018-04-17T08:00:16.635Z,24.90
2018-04-17T08:02:45.954Z,25.90
2018-04-17T08:05:15.336Z,27.60
2018-04-17T08:07:44.656Z,27.70
2018-04-17T08:10:13.980Z,27.90
2018-04-17T08:12:44.073Z,29.00
2018-04-17T08:15:15.249Z,29.00
2018-04-17T08:17:44.613Z,29.20
2018-04-17T08:20:13.956Z,28.80
2018-04-17T08:22:43.324Z,29.30
2018-04-17T08:25:12.641Z,28.60
2018-04-17T08:27:41.997Z,27.30
2018-04-17T08:30:11.337Z,27.50
2018-04-17T08:32:40.658Z,27.90
2018-04-17T08:35:10.761Z,26.80
2018-04-17T08:37:40.838Z,25.50
2018-04-17T08:40:10.160Z,25.50
2018-04-17T08:42:39.536Z,25.10
2018-04-17T08:45:08.867Z,24.50
2018-04-17T08:47:38.199Z,24.40
2018-04-17T08:50:08.290Z,24.60
2018-04-17T08:52:37.992Z,23.70
2018-04-17T08:55:07.307Z,21.70
2018-04-17T08:57:37.446Z,23.70
2018-04-17T09:00:07.535Z,23.90
2018-04-17T09:02:36.911Z,23.80
2018-04-17T09:05:06.258Z,23.50
2018-04-17T09:07:35.559Z,23.10
2018-04-17T09:10:05.647Z,23.40
2018-04-17T09:12:35.026Z,23.40
2018-04-17T09:15:20.949Z,23.30
2018-04-17T09:17:50.598Z,23.10
2018-04-17T09:20:19.954Z,23.00
2018-04-17T09:22:49.291Z,23.30
2018-04-17T09:25:19.397Z,23.70
2018-04-17T09:27:48.738Z,23.60
2018-04-17T09:30:18.070Z,24.00
2018-04-17T09:32:47.441Z,24.70
2018-04-17T09:35:16.779Z,24.80
2018-04-17T09:37:46.133Z,23.10
2018-04-17T09:40:16.245Z,24.80
2018-04-17T09:42:46.358Z,25.20
2018-04-17T09:45:16.457Z,24.60
2018-04-17T09:47:45.842Z,24.60
2018-04-17T09:53:15.037Z,25.00
2018-04-17T09:55:45.151Z,24.70
2018-04-17T09:58:14.488Z,25.10
2018-04-17T10:00:48.300Z,25.10
2018-04-17T10:03:18.825Z,25.40
2018-04-17T10:05:48.177Z,25.40
2018-04-17T10:08:19.599Z,25.90
2018-04-17T10:10:48.915Z,25.70
2018-04-17T10:13:19.029Z,25.70
2018-04-17T10:15:51.223Z,25.50
2018-04-17T10:18:23.358Z,26.40
2018-04-17T10:20:53.249Z,25.80
2018-04-17T10:23:23.424Z,25.40
2018-04-17T10:25:53.850Z,25.60
2018-04-17T10:28:24.057Z,25.60
2018-04-17T10:30:54.389Z,25.80
2018-04-17T10:33:24.676Z,26.20
2018-04-17T10:35:54.943Z,25.60
2018-04-17T10:38:25.390Z,25.70
2018-04-17T10:43:50.391Z,25.70
2018-04-17T10:46:22.755Z,24.70
2018-04-17T10:48:53.097Z,23.90
2018-04-17T10:51:23.319Z,23.30
2018-04-17T10:53:53.555Z,23.40
2018-04-17T10:56:23.854Z,22.80
2018-04-17T10:58:54.190Z,23.20
2018-04-17T11:01:24.406Z,23.00
2018-04-17T11:03:54.578Z,23.90
2018-04-17T11:06:26.998Z,23.70
2018-04-17T11:08:57.285Z,24.30
2018-04-17T11:11:27.549Z,24.70
2018-04-17T11:17:06.260Z,24.50
2018-04-17T11:19:37.121Z,23.60
2018-04-17T11:22:07.404Z,24.80
2018-04-17T11:24:48.626Z,24.20
2018-04-17T11:27:18.853Z,24.70
2018-04-17T11:29:49.073Z,25.30
2018-04-17T11:32:19.297Z,24.80
2018-04-17T11:35:01.401Z,24.40
2018-04-17T11:37:32.262Z,24.40
2018-04-17T11:40:21.676Z,24.50
2018-04-17T11:42:53.891Z,23.40
2018-04-17T11:45:24.185Z,22.90
2018-04-17T11:47:54.422Z,23.50
2018-04-17T11:50:24.639Z,22.90
2018-04-17T11:52:54.965Z,23.20
2018-04-17T11:55:25.629Z,24.60
2018-04-17T11:58:12.819Z,23.80
2018-04-17T12:03:29.367Z,23.60
2018-04-17T12:06:10.436Z,20.90
2018-04-17T12:08:45.673Z,21.80
2018-04-17T12:11:17.442Z,22.50
2018-04-17T12:13:47.701Z,23.20
2018-04-17T12:16:17.862Z,22.60
2018-04-17T12:18:48.184Z,21.40
2018-04-17T12:21:18.483Z,21.80
2018-04-17T12:23:53.432Z,22.50
2018-04-17T12:26:23.869Z,21.20
2018-04-17T12:28:54.275Z,22.90
2018-04-17T12:31:24.629Z,21.60
2018-04-17T12:33:54.799Z,21.30
2018-04-17T12:36:26.393Z,21.20
2018-04-17T12:38:56.893Z,22.50
2018-04-17T12:41:26.660Z,21.50
2018-04-17T12:43:56.999Z,21.70
2018-04-17T12:46:27.192Z,23.70
2018-04-17T12:48:57.468Z,21.90
2018-04-17T12:51:33.197Z,21.80
2018-04-17T12:54:03.490Z,22.60
2018-04-17T12:56:33.978Z,23.00
2018-04-17T12:59:04.654Z,21.60
2018-04-17T13:01:35.116Z,23.10
2018-04-17T13:04:04.892Z,21.60
2018-04-17T13:06:35.218Z,21.90
2018-04-17T13:09:06.469Z,22.90
2018-04-17T13:11:36.744Z,23.00
2018-04-17T13:14:07.018Z,22.60
2018-04-17T13:16:37.227Z,23.40
2018-04-17T13:19:13.804Z,23.40
2018-04-17T13:21:44.779Z,24.10
2018-04-17T13:24:20.398Z,23.00
2018-04-17T13:26:55.047Z,24.10
2018-04-17T13:29:26.576Z,24.50
2018-04-17T13:31:56.391Z,24.70
2018-04-17T13:34:27.028Z,24.80
2018-04-17T13:36:57.552Z,25.90
2018-04-17T13:39:28.902Z,24.70
2018-04-17T13:41:59.025Z,25.00
2018-04-17T13:44:29.346Z,25.20
2018-04-17T13:47:01.626Z,25.10
2018-04-17T13:49:32.760Z,25.10
2018-04-17T13:52:03.604Z,24.70
2018-04-17T13:54:34.245Z,24.70
2018-04-17T13:57:09.370Z,25.80
2018-04-17T13:59:42.048Z,25.90
2018-04-17T14:02:32.154Z,25.80
2018-04-17T14:05:02.353Z,26.50
2018-04-17T14:07:33.989Z,26.70
2018-04-17T14:10:25.324Z,26.30
2018-04-17T14:12:56.012Z,26.60
2018-04-17T14:15:28.798Z,27.50
2018-04-17T14:18:02.868Z,27.00
2018-04-17T14:20:33.792Z,27.60
2018-04-17T14:23:04.071Z,27.30
2018-04-17T14:25:35.803Z,27.80
2018-04-17T14:28:07.519Z,27.40
2018-04-17T14:30:37.717Z,26.90
2018-04-17T14:33:08.805Z,26.80
2018-04-17T14:35:39.841Z,27.20
2018-04-17T14:38:14.266Z,27.70
2018-04-17T14:40:48.148Z,27.90
2018-04-17T14:43:25.779Z,28.20
2018-04-17T14:45:56.584Z,28.50
2018-04-17T14:48:26.982Z,28.40
2018-04-17T14:50:57.466Z,28.80
2018-04-17T14:53:28.814Z,28.30
2018-04-17T14:55:59.027Z,28.80
2018-04-17T14:58:31.205Z,28.90
2018-04-17T15:01:03.647Z,29.60
2018-04-17T15:03:34.510Z,28.30
2018-04-17T15:06:05.342Z,28.30
2018-04-17T15:08:37.126Z,28.30
2018-04-17T15:11:07.457Z,29.20
2018-04-17T15:13:37.979Z,28.30
2018-04-17T15:16:20.635Z,28.00
2018-04-17T15:18:51.106Z,28.30
2018-04-17T15:21:22.925Z,27.90
2018-04-17T15:23:53.791Z,28.50
2018-04-17T15:26:24.129Z,29.50
2018-04-17T15:28:54.458Z,28.90
2018-04-17T15:31:27.002Z,29.90
2018-04-17T15:33:59.094Z,29.50
2018-04-17T15:36:29.425Z,30.00
2018-04-17T15:38:59.857Z,29.50
2018-04-17T15:41:30.889Z,29.90
2018-04-17T15:44:02.736Z,30.00
2018-04-17T15:46:33.611Z,30.00
2018-04-17T15:49:04.842Z,29.90
2018-04-17T15:51:35.280Z,29.90
2018-04-17T15:54:06.403Z,30.20
2018-04-17T15:56:36.840Z,31.20
2018-04-17T15:59:07.052Z,31.30
2018-04-17T16:01:37.488Z,31.20
2018-04-17T16:04:07.709Z,30.80
2018-04-17T16:06:38.671Z,30.60
2018-04-17T16:09:09.985Z,31.20
2018-04-17T16:11:41.057Z,31.40
2018-04-17T16:14:11.539Z,31.40
2018-04-17T16:16:52.199Z,31.80
2018-04-17T16:19:22.583Z,32.00
2018-04-17T16:21:53.285Z,32.50
2018-04-17T16:24:23.823Z,32.70
2018-04-17T16:26:53.965Z,34.00
2018-04-17T16:29:24.319Z,34.80
2018-04-17T16:31:55.061Z,35.20
2018-04-17T16:34:25.735Z,35.40
2018-04-17T16:36:56.884Z,36.10
2018-04-17T16:39:35.108Z,36.40
2018-04-17T16:42:05.746Z,35.10
2018-04-17T16:44:36.283Z,36.70
2018-04-17T16:47:07.416Z,37.30
2018-04-17T16:49:43.942Z,37.40
2018-04-17T16:52:14.952Z,37.30
2018-04-17T16:54:47.318Z,37.80
2018-04-17T16:57:22.961Z,37.90
2018-04-17T16:59:53.441Z,38.30
2018-04-17T17:02:26.755Z,38.60
2018-04-17T17:04:58.079Z,38.50
2018-04-17T17:07:29.632Z,38.70
2018-04-17T17:10:00.064Z,38.90
2018-04-17T17:12:30.823Z,38.90
2018-04-17T17:15:03.406Z,39.00
2018-04-17T17:17:35.911Z,39.20
2018-04-17T17:20:07.621Z,39.60
2018-04-17T17:22:41.717Z,40.30
2018-04-17T17:25:14.020Z,40.10
2018-04-17T17:27:54.877Z,40.30
2018-04-17T17:30:27.716Z,40.40
2018-04-17T17:32:58.392Z,40.50
2018-04-17T17:35:31.851Z,40.30
2018-04-17T17:38:10.170Z,40.90
2018-04-17T17:40:41.704Z,39.70
2018-04-17T17:43:17.127Z,41.70
2018-04-17T17:45:50.847Z,41.00
2018-04-17T17:48:25.241Z,41.30
2018-04-17T17:50:58.921Z,42.50
2018-04-17T17:53:31.999Z,42.00
2018-04-17T17:56:06.441Z,42.00
2018-04-17T17:58:39.312Z,43.00
2018-04-17T18:01:24.542Z,42.80
2018-04-17T18:03:56.920Z,43.50
2018-04-17T18:06:31.457Z,44.60
2018-04-17T18:09:04.083Z,46.10
2018-04-17T18:11:39.730Z,46.90
2018-04-17T18:14:11.170Z,48.20
2018-04-17T18:16:45.330Z,49.00
2018-04-17T18:19:18.440Z,47.90
2018-04-17T18:22:00.672Z,49.90
2018-04-17T18:24:33.565Z,50.20
2018-04-17T18:27:05.036Z,51.00
2018-04-17T18:29:40.983Z,51.70
2018-04-17T18:32:14.607Z,51.90
2018-04-17T18:34:47.198Z,52.00
2018-04-17T18:37:24.519Z,51.00
2018-04-17T18:39:56.833Z,52.30
2018-04-17T18:42:28.836Z,51.20
2018-04-17T18:45:03.772Z,53.20
2018-04-17T18:47:38.428Z,53.80
2018-04-17T18:50:18.675Z,53.70
2018-04-17T18:52:51.780Z,54.60
2018-04-17T18:55:26.289Z,54.80
2018-04-17T18:57:59.758Z,53.60
2018-04-17T19:00:32.825Z,54.90
2018-04-17T19:03:06.539Z,55.50
2018-04-17T19:05:39.068Z,56.00
2018-04-17T19:08:12.249Z,56.20
2018-04-17T19:10:46.395Z,58.00
2018-04-17T19:13:19.615Z,56.70
2018-04-17T19:15:58.824Z,57.10
2018-04-17T19:18:33.798Z,57.40
2018-04-17T19:21:13.861Z,57.30
2018-04-17T19:23:47.978Z,57.60
2018-04-17T19:26:23.751Z,58.00
2018-04-17T19:29:01.856Z,58.10
2018-04-17T19:31:37.238Z,58.30
2018-04-17T19:34:10.294Z,58.80
2018-04-17T19:36:44.920Z,58.80
2018-04-17T19:39:18.033Z,58.90
2018-04-17T19:41:51.672Z,58.90
2018-04-17T19:44:25.719Z,58.70
2018-04-17T19:46:59.740Z,59.30
2018-04-17T19:49:34.934Z,59.10
2018-04-17T19:52:07.845Z,59.70
2018-04-17T19:54:41.216Z,59.90
2018-04-17T19:57:12.577Z,60.30
2018-04-17T19:59:46.408Z,60.70
2018-04-17T20:02:18.269Z,60.80
2018-04-17T20:04:50.081Z,60.90
2018-04-17T20:07:24.725Z,61.20
2018-04-17T20:09:57.716Z,61.80
2018-04-17T20:12:31.037Z,62.10
2018-04-17T20:15:04.447Z,61.90
2018-04-17T20:17:40.042Z,64.60
2018-04-17T20:20:11.307Z,62.20
2018-04-17T20:22:43.398Z,62.50
2018-04-17T20:25:17.109Z,64.80
2018-04-17T20:27:49.929Z,62.40
2018-04-17T20:30:25.962Z,62.90
2018-04-17T20:32:57.670Z,63.00
2018-04-17T20:35:28.700Z,63.00
2018-04-17T20:38:01.121Z,61.70
2018-04-17T20:40:33.168Z,63.50
2018-04-17T20:43:08.129Z,64.00
2018-04-17T20:45:40.773Z,63.70
2018-04-17T20:48:12.513Z,63.90
2018-04-17T20:50:43.808Z,63.80
2018-04-17T20:53:16.261Z,64.20
2018-04-17T20:55:47.879Z,64.40
2018-04-17T20:58:18.575Z,64.20
2018-04-17T21:00:49.026Z,64.60
2018-04-17T21:03:19.662Z,64.80
2018-04-17T21:05:50.081Z,65.10
2018-04-17T21:08:20.298Z,65.30
2018-04-17T21:10:50.625Z,65.50
2018-04-17T21:13:20.947Z,67.00
2018-04-17T21:15:51.589Z,65.90
2018-04-17T21:18:21.770Z,66.10
2018-04-17T21:20:52.005Z,64.90
2018-04-17T21:23:22.253Z,66.40
2018-04-17T21:25:52.476Z,66.80
2018-04-17T21:28:22.693Z,66.80
2018-04-17T21:30:52.512Z,67.10
2018-04-17T21:33:22.685Z,67.20
2018-04-17T21:35:52.849Z,67.30
2018-04-17T21:38:23.090Z,67.20
2018-04-17T21:40:53.501Z,67.40
2018-04-17T21:43:23.725Z,67.50
2018-04-17T21:45:53.907Z,67.60
2018-04-17T21:48:24.263Z,67.70
2018-04-17T21:50:54.494Z,67.80
2018-04-17T21:53:24.259Z,67.80
2018-04-17T21:55:54.451Z,68.00
2018-04-17T21:58:24.743Z,68.20
2018-04-17T22:00:55.069Z,70.30
2018-04-17T22:03:25.302Z,68.70
2018-04-17T22:05:55.472Z,68.70
2018-04-17T22:08:25.595Z,68.90
2018-04-17T22:10:55.756Z,68.90
2018-04-17T22:13:26.080Z,69.00
2018-04-17T22:15:56.610Z,69.30
2018-04-17T22:18:26.901Z,69.50
2018-04-17T22:20:57.457Z,69.50
2018-04-17T22:23:27.752Z,69.60
2018-04-17T22:25:58.075Z,69.60
2018-04-17T22:28:28.414Z,69.70
2018-04-17T22:30:58.352Z,69.60
2018-04-17T22:36:34.859Z,70.20
2018-04-17T22:39:05.794Z,70.30
2018-04-17T22:41:36.481Z,70.50
2018-04-17T22:44:06.812Z,70.60
2018-04-17T22:46:37.410Z,70.70
2018-04-17T22:49:07.699Z,70.40
2018-04-17T22:51:38.183Z,70.60
2018-04-17T22:54:07.979Z,70.70
2018-04-17T22:56:38.262Z,71.00
2018-04-17T22:59:08.543Z,71.10
2018-04-17T23:01:38.818Z,71.30
2018-04-17T23:04:08.992Z,71.50
2018-04-17T23:06:39.262Z,71.50
2018-04-17T23:09:09.589Z,71.80
2018-04-17T23:11:39.345Z,71.80
2018-04-17T23:14:09.535Z,73.00
2018-04-17T23:16:40.821Z,72.30
2018-04-17T23:19:11.885Z,72.70
2018-04-17T23:21:43.764Z,73.40
2018-04-17T23:24:13.996Z,72.70
2018-04-17T23:26:44.405Z,72.80
2018-04-17T23:29:14.560Z,72.90
2018-04-17T23:31:46.255Z,73.10
2018-04-17T23:34:16.453Z,73.10
2018-04-17T23:36:46.644Z,73.10
2018-04-17T23:39:17.382Z,73.10
2018-04-17T23:41:47.964Z,73.20
2018-04-17T23:44:18.663Z,72.30
2018-04-17T23:46:49.526Z,73.40
2018-04-17T23:49:19.718Z,73.60
2018-04-17T23:51:50.024Z,74.00
2018-04-17T23:54:20.168Z,74.40
2018-04-17T23:56:50.726Z,74.30
2018-04-17T23:59:20.888Z,74.30
